Terminal Aerodrome Forecast
Issued by NWS

Home | Current Version | Previous Version | Text Only | Print | Product List | Glossary Off
Versions: 1 2 3 4 5 6 7 8 9 10 11 12 13 14 15 16 17 18 19 20 21 22 23 24

233
FTUS43 KMPX 141738
TAFRWF
TAF
KRWF 141738Z 1418/1518 01005KT P6SM OVC015
     FM142100 36005KT P6SM BKN025
      TEMPO 1421/1424 SCT025
     FM150000 35005KT P6SM BKN040
     FM150300 05004KT P6SM SKC
      TEMPO 1508/1512 3/4SM BR VV003=

USA.gov is the U.S. government's official web portal to all federal, state and local government web resources and services.